sensor_id;sensor_type;location;lat;lon;timestamp;P1;durP1;ratioP1;P2;durP2;ratioP2
2041;SDS011;1026;51.460;7.252;2023-02-28T00:00:43;1.83;;;1.60;;
2041;SDS011;1026;51.460;7.252;2023-02-28T00:03:09;3.60;;;2.17;;
2041;SDS011;1026;51.460;7.252;2023-02-28T00:05:35;2.87;;;2.30;;
2041;SDS011;1026;51.460;7.252;2023-02-28T00:08:00;2.87;;;2.37;;
2041;SDS011;1026;51.460;7.252;2023-02-28T00:10:27;3.00;;;2.43;;
2041;SDS011;1026;51.460;7.252;2023-02-28T00:12:55;2.93;;;2.07;;
2041;SDS011;1026;51.460;7.252;2023-02-28T00:15:24;2.60;;;2.10;;
2041;SDS011;1026;51.460;7.252;2023-02-28T00:17:49;6.73;;;2.83;;
2041;SDS011;1026;51.460;7.252;2023-02-28T00:20:15;3.10;;;2.00;;
2041;SDS011;1026;51.460;7.252;2023-02-28T00:22:42;2.20;;;1.83;;
2041;SDS011;1026;51.460;7.252;2023-02-28T00:25:10;2.27;;;2.03;;
2041;SDS011;1026;51.460;7.252;2023-02-28T00:27:38;3.97;;;2.50;;
2041;SDS011;1026;51.460;7.252;2023-02-28T00:30:05;2.00;;;1.80;;
2041;SDS011;1026;51.460;7.252;2023-02-28T00:32:34;2.40;;;2.20;;
2041;SDS011;1026;51.460;7.252;2023-02-28T00:35:01;4.40;;;2.70;;
2041;SDS011;1026;51.460;7.252;2023-02-28T00:37:27;2.57;;;2.37;;
2041;SDS011;1026;51.460;7.252;2023-02-28T00:39:52;2.37;;;2.17;;
2041;SDS011;1026;51.460;7.252;2023-02-28T00:42:18;2.93;;;2.00;;
2041;SDS011;1026;51.460;7.252;2023-02-28T00:44:44;2.53;;;2.33;;
2041;SDS011;1026;51.460;7.252;2023-02-28T00:47:10;2.27;;;1.97;;
2041;SDS011;1026;51.460;7.252;2023-02-28T00:49:35;2.33;;;2.13;;
2041;SDS011;1026;51.460;7.252;2023-02-28T00:52:01;7.50;;;3.33;;
2041;SDS011;1026;51.460;7.252;2023-02-28T00:54:27;2.20;;;1.93;;
2041;SDS011;1026;51.460;7.252;2023-02-28T00:56:53;3.53;;;2.33;;
2041;SDS011;1026;51.460;7.252;2023-02-28T00:59:18;1.90;;;1.80;;
2041;SDS011;1026;51.460;7.252;2023-02-28T01:01:44;2.83;;;2.63;;
2041;SDS011;1026;51.460;7.252;2023-02-28T01:04:11;3.00;;;2.70;;
2041;SDS011;1026;51.460;7.252;2023-02-28T01:06:37;3.90;;;3.27;;
2041;SDS011;1026;51.460;7.252;2023-02-28T01:09:03;3.10;;;1.97;;
2041;SDS011;1026;51.460;7.252;2023-02-28T01:11:30;4.20;;;2.63;;
2041;SDS011;1026;51.460;7.252;2023-02-28T01:13:57;2.07;;;1.57;;
2041;SDS011;1026;51.460;7.252;2023-02-28T01:16:23;2.30;;;2.10;;
2041;SDS011;1026;51.460;7.252;2023-02-28T01:18:49;4.70;;;2.93;;
2041;SDS011;1026;51.460;7.252;2023-02-28T01:21:15;2.30;;;2.10;;
2041;SDS011;1026;51.460;7.252;2023-02-28T01:23:42;2.10;;;1.80;;
2041;SDS011;1026;51.460;7.252;2023-02-28T01:26:10;2.27;;;1.80;;
2041;SDS011;1026;51.460;7.252;2023-02-28T01:28:38;1.80;;;1.70;;
2041;SDS011;1026;51.460;7.252;2023-02-28T01:31:03;4.00;;;2.30;;
2041;SDS011;1026;51.460;7.252;2023-02-28T01:33:30;2.10;;;1.97;;
2041;SDS011;1026;51.460;7.252;2023-02-28T01:35:57;3.03;;;2.17;;
2041;SDS011;1026;51.460;7.252;2023-02-28T01:38:24;3.07;;;2.23;;
2041;SDS011;1026;51.460;7.252;2023-02-28T01:40:50;2.33;;;2.13;;
2041;SDS011;1026;51.460;7.252;2023-02-28T01:43:19;3.43;;;2.63;;
2041;SDS011;1026;51.460;7.252;2023-02-28T01:45:48;3.47;;;2.50;;
2041;SDS011;1026;51.460;7.252;2023-02-28T01:48:13;4.30;;;2.57;;
2041;SDS011;1026;51.460;7.252;2023-02-28T01:50:41;3.13;;;2.33;;
2041;SDS011;1026;51.460;7.252;2023-02-28T01:53:12;2.30;;;1.60;;
2041;SDS011;1026;51.460;7.252;2023-02-28T01:55:42;2.80;;;2.50;;
2041;SDS011;1026;51.460;7.252;2023-02-28T01:58:13;2.80;;;2.60;;
2041;SDS011;1026;51.460;7.252;2023-02-28T02:00:40;1.97;;;1.77;;
2041;SDS011;1026;51.460;7.252;2023-02-28T02:03:09;3.17;;;2.47;;
2041;SDS011;1026;51.460;7.252;2023-02-28T02:05:37;4.77;;;1.90;;
2041;SDS011;1026;51.460;7.252;2023-02-28T02:08:05;2.10;;;1.63;;
2041;SDS011;1026;51.460;7.252;2023-02-28T02:10:34;2.10;;;1.50;;
2041;SDS011;1026;51.460;7.252;2023-02-28T02:15:42;2.33;;;2.20;;
2041;SDS011;1026;51.460;7.252;2023-02-28T02:32:44;2.20;;;2.00;;
2041;SDS011;1026;51.460;7.252;2023-02-28T02:40:36;3.03;;;1.67;;
2041;SDS011;1026;51.460;7.252;2023-02-28T02:43:13;4.23;;;1.80;;
2041;SDS011;1026;51.460;7.252;2023-02-28T02:45:55;1.77;;;1.67;;
2041;SDS011;1026;51.460;7.252;2023-02-28T02:48:25;2.17;;;1.93;;
2041;SDS011;1026;51.460;7.252;2023-02-28T02:50:55;1.90;;;1.80;;
2041;SDS011;1026;51.460;7.252;2023-02-28T02:53:27;2.83;;;1.90;;
2041;SDS011;1026;51.460;7.252;2023-02-28T02:55:57;2.20;;;2.00;;
2041;SDS011;1026;51.460;7.252;2023-02-28T02:58:25;3.30;;;3.10;;
2041;SDS011;1026;51.460;7.252;2023-02-28T03:00:56;1.67;;;1.53;;
2041;SDS011;1026;51.460;7.252;2023-02-28T03:03:24;3.00;;;2.10;;
2041;SDS011;1026;51.460;7.252;2023-02-28T03:05:55;1.83;;;1.30;;
2041;SDS011;1026;51.460;7.252;2023-02-28T03:08:23;1.90;;;1.80;;
2041;SDS011;1026;51.460;7.252;2023-02-28T03:10:50;2.50;;;1.70;;
2041;SDS011;1026;51.460;7.252;2023-02-28T03:13:33;1.93;;;1.60;;
2041;SDS011;1026;51.460;7.252;2023-02-28T03:16:08;3.03;;;1.97;;
2041;SDS011;1026;51.460;7.252;2023-02-28T03:26:27;4.33;;;1.87;;
2041;SDS011;1026;51.460;7.252;2023-02-28T03:31:47;2.23;;;1.80;;
2041;SDS011;1026;51.460;7.252;2023-02-28T03:34:19;3.43;;;2.23;;
2041;SDS011;1026;51.460;7.252;2023-02-28T03:36:52;2.63;;;1.63;;
2041;SDS011;1026;51.460;7.252;2023-02-28T03:39:21;2.30;;;1.83;;
2041;SDS011;1026;51.460;7.252;2023-02-28T03:41:52;2.40;;;2.20;;
2041;SDS011;1026;51.460;7.252;2023-02-28T03:44:21;2.00;;;1.83;;
2041;SDS011;1026;51.460;7.252;2023-02-28T03:47:04;1.80;;;1.70;;
2041;SDS011;1026;51.460;7.252;2023-02-28T03:49:35;2.67;;;1.83;;
2041;SDS011;1026;51.460;7.252;2023-02-28T03:52:10;2.83;;;1.50;;
2041;SDS011;1026;51.460;7.252;2023-02-28T03:54:39;2.17;;;1.70;;
2041;SDS011;1026;51.460;7.252;2023-02-28T03:57:11;1.53;;;1.33;;
2041;SDS011;1026;51.460;7.252;2023-02-28T04:02:38;1.83;;;1.70;;
2041;SDS011;1026;51.460;7.252;2023-02-28T04:05:04;1.50;;;1.40;;
2041;SDS011;1026;51.460;7.252;2023-02-28T04:07:31;1.67;;;1.57;;
2041;SDS011;1026;51.460;7.252;2023-02-28T04:09:57;3.13;;;2.00;;
2041;SDS011;1026;51.460;7.252;2023-02-28T04:12:23;2.10;;;1.80;;
2041;SDS011;1026;51.460;7.252;2023-02-28T04:14:49;8.13;;;1.90;;
2041;SDS011;1026;51.460;7.252;2023-02-28T04:17:16;3.40;;;2.30;;
2041;SDS011;1026;51.460;7.252;2023-02-28T04:19:48;2.60;;;1.80;;
2041;SDS011;1026;51.460;7.252;2023-02-28T04:22:14;2.50;;;1.87;;
2041;SDS011;1026;51.460;7.252;2023-02-28T04:24:42;1.70;;;1.53;;
2041;SDS011;1026;51.460;7.252;2023-02-28T04:27:08;3.60;;;2.10;;
2041;SDS011;1026;51.460;7.252;2023-02-28T04:29:34;2.20;;;1.90;;
2041;SDS011;1026;51.460;7.252;2023-02-28T04:32:00;2.00;;;1.90;;
2041;SDS011;1026;51.460;7.252;2023-02-28T04:34:27;3.00;;;1.93;;
2041;SDS011;1026;51.460;7.252;2023-02-28T04:36:54;4.17;;;2.23;;
2041;SDS011;1026;51.460;7.252;2023-02-28T04:39:21;2.10;;;1.70;;
2041;SDS011;1026;51.460;7.252;2023-02-28T04:41:47;3.33;;;1.67;;
2041;SDS011;1026;51.460;7.252;2023-02-28T04:44:13;2.67;;;1.67;;
2041;SDS011;1026;51.460;7.252;2023-02-28T04:46:40;1.37;;;1.30;;
2041;SDS011;1026;51.460;7.252;2023-02-28T04:49:06;2.50;;;2.30;;
2041;SDS011;1026;51.460;7.252;2023-02-28T04:51:32;2.50;;;1.33;;
2041;SDS011;1026;51.460;7.252;2023-02-28T04:53:57;1.50;;;1.40;;
2041;SDS011;1026;51.460;7.252;2023-02-28T04:56:23;3.80;;;2.10;;
2041;SDS011;1026;51.460;7.252;2023-02-28T04:58:49;4.47;;;1.97;;
2041;SDS011;1026;51.460;7.252;2023-02-28T05:01:24;2.37;;;1.97;;
2041;SDS011;1026;51.460;7.252;2023-02-28T05:03:59;2.23;;;1.60;;
2041;SDS011;1026;51.460;7.252;2023-02-28T05:06:27;1.70;;;1.60;;
2041;SDS011;1026;51.460;7.252;2023-02-28T05:08:55;1.80;;;1.70;;
2041;SDS011;1026;51.460;7.252;2023-02-28T05:11:30;3.00;;;2.20;;
2041;SDS011;1026;51.460;7.252;2023-02-28T05:14:02;3.23;;;1.70;;
2041;SDS011;1026;51.460;7.252;2023-02-28T05:16:30;2.17;;;1.97;;
2041;SDS011;1026;51.460;7.252;2023-02-28T05:18:56;1.83;;;1.40;;
2041;SDS011;1026;51.460;7.252;2023-02-28T05:21:26;2.10;;;1.50;;
2041;SDS011;1026;51.460;7.252;2023-02-28T05:23:54;2.13;;;1.80;;
2041;SDS011;1026;51.460;7.252;2023-02-28T05:26:21;1.60;;;1.50;;
2041;SDS011;1026;51.460;7.252;2023-02-28T05:28:47;2.23;;;2.03;;
2041;SDS011;1026;51.460;7.252;2023-02-28T05:31:13;1.60;;;1.50;;
2041;SDS011;1026;51.460;7.252;2023-02-28T05:33:38;1.93;;;1.80;;
2041;SDS011;1026;51.460;7.252;2023-02-28T05:36:04;1.97;;;1.87;;
2041;SDS011;1026;51.460;7.252;2023-02-28T05:38:31;2.07;;;1.40;;
2041;SDS011;1026;51.460;7.252;2023-02-28T05:40:56;2.30;;;1.37;;
2041;SDS011;1026;51.460;7.252;2023-02-28T05:43:22;2.03;;;1.87;;
2041;SDS011;1026;51.460;7.252;2023-02-28T05:45:48;2.00;;;1.70;;
2041;SDS011;1026;51.460;7.252;2023-02-28T05:48:14;1.73;;;1.63;;
2041;SDS011;1026;51.460;7.252;2023-02-28T05:50:40;5.63;;;2.03;;
2041;SDS011;1026;51.460;7.252;2023-02-28T05:53:18;3.00;;;2.40;;
2041;SDS011;1026;51.460;7.252;2023-02-28T05:55:44;1.90;;;1.67;;
2041;SDS011;1026;51.460;7.252;2023-02-28T05:58:10;1.90;;;1.80;;
2041;SDS011;1026;51.460;7.252;2023-02-28T06:00:35;4.27;;;2.30;;
2041;SDS011;1026;51.460;7.252;2023-02-28T06:03:01;3.40;;;3.20;;
2041;SDS011;1026;51.460;7.252;2023-02-28T06:05:27;1.73;;;1.60;;
2041;SDS011;1026;51.460;7.252;2023-02-28T06:07:53;2.30;;;1.80;;
2041;SDS011;1026;51.460;7.252;2023-02-28T06:10:18;1.50;;;1.40;;
2041;SDS011;1026;51.460;7.252;2023-02-28T06:12:44;2.73;;;1.53;;
2041;SDS011;1026;51.460;7.252;2023-02-28T06:15:12;1.87;;;1.73;;
2041;SDS011;1026;51.460;7.252;2023-02-28T06:17:40;3.40;;;2.00;;
2041;SDS011;1026;51.460;7.252;2023-02-28T06:20:07;2.70;;;2.27;;
2041;SDS011;1026;51.460;7.252;2023-02-28T06:22:34;4.70;;;1.70;;
2041;SDS011;1026;51.460;7.252;2023-02-28T06:25:00;2.50;;;2.30;;
2041;SDS011;1026;51.460;7.252;2023-02-28T06:27:26;2.00;;;1.90;;
2041;SDS011;1026;51.460;7.252;2023-02-28T06:29:53;1.90;;;1.60;;
2041;SDS011;1026;51.460;7.252;2023-02-28T06:32:21;2.00;;;1.87;;
2041;SDS011;1026;51.460;7.252;2023-02-28T06:34:47;2.80;;;2.50;;
2041;SDS011;1026;51.460;7.252;2023-02-28T06:37:13;2.40;;;1.90;;
2041;SDS011;1026;51.460;7.252;2023-02-28T06:39:39;2.07;;;1.90;;
2041;SDS011;1026;51.460;7.252;2023-02-28T06:42:05;2.33;;;2.00;;
2041;SDS011;1026;51.460;7.252;2023-02-28T06:44:30;2.13;;;1.83;;
2041;SDS011;1026;51.460;7.252;2023-02-28T06:47:00;1.87;;;1.77;;
2041;SDS011;1026;51.460;7.252;2023-02-28T06:49:28;3.10;;;1.70;;
2041;SDS011;1026;51.460;7.252;2023-02-28T06:51:55;2.80;;;2.23;;
2041;SDS011;1026;51.460;7.252;2023-02-28T06:54:21;1.33;;;1.30;;
2041;SDS011;1026;51.460;7.252;2023-02-28T06:56:47;2.00;;;1.80;;
2041;SDS011;1026;51.460;7.252;2023-02-28T06:59:12;2.43;;;2.33;;
2041;SDS011;1026;51.460;7.252;2023-02-28T07:01:38;1.70;;;1.60;;
2041;SDS011;1026;51.460;7.252;2023-02-28T07:04:05;2.00;;;1.83;;
2041;SDS011;1026;51.460;7.252;2023-02-28T07:06:31;2.10;;;1.90;;
2041;SDS011;1026;51.460;7.252;2023-02-28T07:08:57;1.60;;;1.50;;
2041;SDS011;1026;51.460;7.252;2023-02-28T07:11:24;3.37;;;1.63;;
2041;SDS011;1026;51.460;7.252;2023-02-28T07:13:52;2.30;;;1.80;;
2041;SDS011;1026;51.460;7.252;2023-02-28T07:16:18;3.70;;;2.60;;
2041;SDS011;1026;51.460;7.252;2023-02-28T07:18:44;4.90;;;2.57;;
2041;SDS011;1026;51.460;7.252;2023-02-28T07:21:10;3.37;;;2.43;;
2041;SDS011;1026;51.460;7.252;2023-02-28T07:23:36;2.80;;;1.47;;
2041;SDS011;1026;51.460;7.252;2023-02-28T07:26:03;3.43;;;2.10;;
2041;SDS011;1026;51.460;7.252;2023-02-28T07:28:30;2.93;;;2.20;;
2041;SDS011;1026;51.460;7.252;2023-02-28T07:30:55;2.87;;;1.90;;
2041;SDS011;1026;51.460;7.252;2023-02-28T07:33:21;1.93;;;1.70;;
2041;SDS011;1026;51.460;7.252;2023-02-28T07:35:48;2.17;;;1.97;;
2041;SDS011;1026;51.460;7.252;2023-02-28T07:38:14;4.83;;;1.80;;
2041;SDS011;1026;51.460;7.252;2023-02-28T07:40:40;3.43;;;1.87;;
2041;SDS011;1026;51.460;7.252;2023-02-28T07:43:06;3.20;;;1.90;;
2041;SDS011;1026;51.460;7.252;2023-02-28T07:45:31;3.90;;;2.70;;
2041;SDS011;1026;51.460;7.252;2023-02-28T07:47:59;2.97;;;1.90;;
2041;SDS011;1026;51.460;7.252;2023-02-28T07:50:25;2.50;;;2.30;;
2041;SDS011;1026;51.460;7.252;2023-02-28T07:52:54;1.87;;;1.73;;
2041;SDS011;1026;51.460;7.252;2023-02-28T07:55:19;2.70;;;2.47;;
2041;SDS011;1026;51.460;7.252;2023-02-28T07:57:45;4.43;;;2.20;;
2041;SDS011;1026;51.460;7.252;2023-02-28T08:00:11;3.50;;;2.03;;
2041;SDS011;1026;51.460;7.252;2023-02-28T08:02:38;2.23;;;2.03;;
2041;SDS011;1026;51.460;7.252;2023-02-28T08:05:04;2.10;;;1.90;;
2041;SDS011;1026;51.460;7.252;2023-02-28T08:07:31;2.67;;;2.30;;
2041;SDS011;1026;51.460;7.252;2023-02-28T08:09:58;2.40;;;2.20;;
2041;SDS011;1026;51.460;7.252;2023-02-28T08:12:24;4.03;;;2.27;;
2041;SDS011;1026;51.460;7.252;2023-02-28T08:14:50;2.00;;;1.67;;
2041;SDS011;1026;51.460;7.252;2023-02-28T08:17:16;2.50;;;2.30;;
2041;SDS011;1026;51.460;7.252;2023-02-28T08:19:41;1.97;;;1.80;;
2041;SDS011;1026;51.460;7.252;2023-02-28T08:22:09;2.70;;;2.33;;
2041;SDS011;1026;51.460;7.252;2023-02-28T08:24:35;4.40;;;2.63;;
2041;SDS011;1026;51.460;7.252;2023-02-28T08:27:01;3.00;;;2.17;;
2041;SDS011;1026;51.460;7.252;2023-02-28T08:29:26;2.23;;;2.03;;
2041;SDS011;1026;51.460;7.252;2023-02-28T08:31:52;2.63;;;2.43;;
2041;SDS011;1026;51.460;7.252;2023-02-28T08:34:24;2.53;;;1.90;;
2041;SDS011;1026;51.460;7.252;2023-02-28T08:36:51;4.70;;;2.70;;
2041;SDS011;1026;51.460;7.252;2023-02-28T08:39:18;2.77;;;2.47;;
2041;SDS011;1026;51.460;7.252;2023-02-28T08:41:44;2.80;;;2.60;;
2041;SDS011;1026;51.460;7.252;2023-02-28T08:44:10;7.80;;;3.50;;
2041;SDS011;1026;51.460;7.252;2023-02-28T08:46:36;1.67;;;1.57;;
2041;SDS011;1026;51.460;7.252;2023-02-28T08:49:02;2.80;;;1.93;;
2041;SDS011;1026;51.460;7.252;2023-02-28T08:51:28;2.40;;;2.20;;
2041;SDS011;1026;51.460;7.252;2023-02-28T08:53:55;4.30;;;3.20;;
2041;SDS011;1026;51.460;7.252;2023-02-28T08:56:23;3.03;;;2.73;;
2041;SDS011;1026;51.460;7.252;2023-02-28T08:58:49;2.10;;;1.80;;
2041;SDS011;1026;51.460;7.252;2023-02-28T09:01:16;2.00;;;1.90;;
2041;SDS011;1026;51.460;7.252;2023-02-28T09:03:44;2.50;;;2.30;;
2041;SDS011;1026;51.460;7.252;2023-02-28T09:06:11;3.87;;;3.00;;
2041;SDS011;1026;51.460;7.252;2023-02-28T09:08:38;2.93;;;2.30;;
2041;SDS011;1026;51.460;7.252;2023-02-28T09:11:04;3.37;;;3.10;;
2041;SDS011;1026;51.460;7.252;2023-02-28T09:13:30;3.63;;;2.83;;
2041;SDS011;1026;51.460;7.252;2023-02-28T09:15:57;3.10;;;2.90;;
2041;SDS011;1026;51.460;7.252;2023-02-28T09:18:24;2.77;;;2.27;;
2041;SDS011;1026;51.460;7.252;2023-02-28T09:20:51;5.00;;;3.70;;
2041;SDS011;1026;51.460;7.252;2023-02-28T09:23:16;5.03;;;3.07;;
2041;SDS011;1026;51.460;7.252;2023-02-28T09:25:46;3.33;;;2.23;;
2041;SDS011;1026;51.460;7.252;2023-02-28T09:28:14;4.30;;;3.10;;
2041;SDS011;1026;51.460;7.252;2023-02-28T09:30:42;2.40;;;2.20;;
2041;SDS011;1026;51.460;7.252;2023-02-28T09:33:10;4.47;;;2.10;;
2041;SDS011;1026;51.460;7.252;2023-02-28T09:35:35;2.37;;;2.17;;
2041;SDS011;1026;51.460;7.252;2023-02-28T09:38:02;3.67;;;2.20;;
2041;SDS011;1026;51.460;7.252;2023-02-28T09:40:28;3.10;;;2.33;;
2041;SDS011;1026;51.460;7.252;2023-02-28T09:42:55;3.77;;;2.27;;
2041;SDS011;1026;51.460;7.252;2023-02-28T09:47:59;3.30;;;2.60;;
2041;SDS011;1026;51.460;7.252;2023-02-28T09:50:30;2.10;;;1.90;;
2041;SDS011;1026;51.460;7.252;2023-02-28T09:52:59;3.00;;;2.73;;
2041;SDS011;1026;51.460;7.252;2023-02-28T09:55:30;2.00;;;1.90;;
2041;SDS011;1026;51.460;7.252;2023-02-28T09:58:02;3.37;;;2.10;;
2041;SDS011;1026;51.460;7.252;2023-02-28T10:03:01;1.80;;;1.70;;
2041;SDS011;1026;51.460;7.252;2023-02-28T10:08:47;1.60;;;1.50;;
2041;SDS011;1026;51.460;7.252;2023-02-28T10:11:21;1.80;;;1.70;;
2041;SDS011;1026;51.460;7.252;2023-02-28T10:13:51;2.50;;;2.30;;
2041;SDS011;1026;51.460;7.252;2023-02-28T10:16:28;2.40;;;2.20;;
2041;SDS011;1026;51.460;7.252;2023-02-28T10:21:38;2.13;;;1.87;;
2041;SDS011;1026;51.460;7.252;2023-02-28T10:24:13;1.73;;;1.63;;
2041;SDS011;1026;51.460;7.252;2023-02-28T10:26:55;1.57;;;1.40;;
2041;SDS011;1026;51.460;7.252;2023-02-28T10:29:25;1.80;;;1.60;;
2041;SDS011;1026;51.460;7.252;2023-02-28T10:31:52;5.53;;;1.67;;
2041;SDS011;1026;51.460;7.252;2023-02-28T10:34:18;2.10;;;1.90;;
2041;SDS011;1026;51.460;7.252;2023-02-28T10:36:43;2.30;;;2.13;;
2041;SDS011;1026;51.460;7.252;2023-02-28T10:39:33;2.30;;;2.07;;
2041;SDS011;1026;51.460;7.252;2023-02-28T10:41:59;4.77;;;2.30;;
2041;SDS011;1026;51.460;7.252;2023-02-28T10:44:25;2.70;;;2.47;;
2041;SDS011;1026;51.460;7.252;2023-02-28T10:46:50;3.00;;;2.70;;
2041;SDS011;1026;51.460;7.252;2023-02-28T10:49:20;2.53;;;2.10;;
2041;SDS011;1026;51.460;7.252;2023-02-28T10:51:49;1.87;;;1.70;;
2041;SDS011;1026;51.460;7.252;2023-02-28T10:54:19;2.90;;;1.93;;
2041;SDS011;1026;51.460;7.252;2023-02-28T10:57:20;4.83;;;2.50;;
2041;SDS011;1026;51.460;7.252;2023-02-28T10:59:44;1.63;;;1.40;;
2041;SDS011;1026;51.460;7.252;2023-02-28T11:02:34;6.60;;;2.80;;
2041;SDS011;1026;51.460;7.252;2023-02-28T11:05:01;2.03;;;1.67;;
2041;SDS011;1026;51.460;7.252;2023-02-28T11:07:27;2.43;;;1.73;;
2041;SDS011;1026;51.460;7.252;2023-02-28T11:09:54;2.17;;;2.07;;
2041;SDS011;1026;51.460;7.252;2023-02-28T11:12:29;2.20;;;2.10;;
2041;SDS011;1026;51.460;7.252;2023-02-28T11:15:03;1.73;;;1.60;;
2041;SDS011;1026;51.460;7.252;2023-02-28T11:17:31;2.63;;;1.77;;
2041;SDS011;1026;51.460;7.252;2023-02-28T11:19:58;3.83;;;2.03;;
2041;SDS011;1026;51.460;7.252;2023-02-28T11:22:29;1.47;;;1.37;;
2041;SDS011;1026;51.460;7.252;2023-02-28T11:24:59;1.50;;;1.40;;
2041;SDS011;1026;51.460;7.252;2023-02-28T11:29:59;4.10;;;2.57;;
2041;SDS011;1026;51.460;7.252;2023-02-28T11:32:28;1.80;;;1.60;;
2041;SDS011;1026;51.460;7.252;2023-02-28T11:35:28;3.27;;;2.07;;
2041;SDS011;1026;51.460;7.252;2023-02-28T11:37:44;2.10;;;1.80;;
2041;SDS011;1026;51.460;7.252;2023-02-28T11:40:14;2.67;;;1.63;;
2041;SDS011;1026;51.460;7.252;2023-02-28T11:48:26;2.10;;;1.90;;
2041;SDS011;1026;51.460;7.252;2023-02-28T11:51:01;2.30;;;1.67;;
2041;SDS011;1026;51.460;7.252;2023-02-28T12:01:53;3.00;;;1.80;;
2041;SDS011;1026;51.460;7.252;2023-02-28T12:26:43;2.30;;;1.80;;
2041;SDS011;1026;51.460;7.252;2023-02-28T12:31:52;2.20;;;1.90;;
2041;SDS011;1026;51.460;7.252;2023-02-28T12:34:37;2.60;;;1.93;;
2041;SDS011;1026;51.460;7.252;2023-02-28T12:37:07;3.27;;;2.70;;
2041;SDS011;1026;51.460;7.252;2023-02-28T12:39:40;2.57;;;2.37;;
2041;SDS011;1026;51.460;7.252;2023-02-28T12:42:13;4.03;;;3.47;;
2041;SDS011;1026;51.460;7.252;2023-02-28T12:44:52;4.10;;;2.90;;
2041;SDS011;1026;51.460;7.252;2023-02-28T12:47:23;3.20;;;2.90;;
2041;SDS011;1026;51.460;7.252;2023-02-28T12:49:50;3.03;;;2.30;;
2041;SDS011;1026;51.460;7.252;2023-02-28T13:00:47;2.30;;;2.10;;
2041;SDS011;1026;51.460;7.252;2023-02-28T13:03:33;2.20;;;2.00;;
2041;SDS011;1026;51.460;7.252;2023-02-28T13:11:28;3.30;;;2.80;;
2041;SDS011;1026;51.460;7.252;2023-02-28T13:13:58;2.80;;;2.60;;
2041;SDS011;1026;51.460;7.252;2023-02-28T13:16:25;3.63;;;2.57;;
2041;SDS011;1026;51.460;7.252;2023-02-28T13:18:51;2.63;;;2.43;;
2041;SDS011;1026;51.460;7.252;2023-02-28T13:21:27;3.30;;;3.10;;
2041;SDS011;1026;51.460;7.252;2023-02-28T13:29:34;2.90;;;2.47;;
2041;SDS011;1026;51.460;7.252;2023-02-28T13:34:31;4.17;;;2.80;;
2041;SDS011;1026;51.460;7.252;2023-02-28T13:42:55;2.67;;;2.47;;
2041;SDS011;1026;51.460;7.252;2023-02-28T13:45:23;4.03;;;3.10;;
2041;SDS011;1026;51.460;7.252;2023-02-28T13:47:52;3.03;;;2.73;;
2041;SDS011;1026;51.460;7.252;2023-02-28T13:55:46;3.73;;;3.43;;
2041;SDS011;1026;51.460;7.252;2023-02-28T14:03:58;2.83;;;2.63;;
2041;SDS011;1026;51.460;7.252;2023-02-28T14:06:30;4.83;;;3.50;;
2041;SDS011;1026;51.460;7.252;2023-02-28T14:08:59;4.40;;;3.43;;
2041;SDS011;1026;51.460;7.252;2023-02-28T14:11:34;3.57;;;3.00;;
2041;SDS011;1026;51.460;7.252;2023-02-28T14:14:02;3.73;;;3.43;;
2041;SDS011;1026;51.460;7.252;2023-02-28T14:19:14;3.83;;;3.40;;
2041;SDS011;1026;51.460;7.252;2023-02-28T14:32:49;5.57;;;4.07;;
2041;SDS011;1026;51.460;7.252;2023-02-28T14:38:29;4.30;;;4.00;;
2041;SDS011;1026;51.460;7.252;2023-02-28T14:41:15;3.50;;;3.20;;
2041;SDS011;1026;51.460;7.252;2023-02-28T14:43:50;3.40;;;3.20;;
2041;SDS011;1026;51.460;7.252;2023-02-28T14:46:18;4.20;;;3.80;;
2041;SDS011;1026;51.460;7.252;2023-02-28T14:48:45;2.23;;;2.03;;
2041;SDS011;1026;51.460;7.252;2023-02-28T14:51:12;4.67;;;3.23;;
2041;SDS011;1026;51.460;7.252;2023-02-28T14:53:46;4.67;;;4.27;;
2041;SDS011;1026;51.460;7.252;2023-02-28T14:56:21;3.17;;;2.80;;
2041;SDS011;1026;51.460;7.252;2023-02-28T14:58:52;3.37;;;2.37;;
2041;SDS011;1026;51.460;7.252;2023-02-28T15:01:27;4.77;;;3.30;;
2041;SDS011;1026;51.460;7.252;2023-02-28T15:09:32;3.40;;;3.07;;
2041;SDS011;1026;51.460;7.252;2023-02-28T15:11:58;4.30;;;3.87;;
2041;SDS011;1026;51.460;7.252;2023-02-28T15:14:24;3.10;;;2.90;;
2041;SDS011;1026;51.460;7.252;2023-02-28T15:16:55;3.00;;;2.80;;
2041;SDS011;1026;51.460;7.252;2023-02-28T15:19:29;4.30;;;3.90;;
2041;SDS011;1026;51.460;7.252;2023-02-28T15:21:59;4.40;;;4.00;;
2041;SDS011;1026;51.460;7.252;2023-02-28T15:24:40;4.10;;;2.97;;
2041;SDS011;1026;51.460;7.252;2023-02-28T15:27:12;3.50;;;3.20;;
2041;SDS011;1026;51.460;7.252;2023-02-28T15:29:50;3.50;;;3.20;;
2041;SDS011;1026;51.460;7.252;2023-02-28T15:32:24;4.80;;;3.20;;
2041;SDS011;1026;51.460;7.252;2023-02-28T15:34:53;4.00;;;3.60;;
2041;SDS011;1026;51.460;7.252;2023-02-28T15:40:07;4.10;;;3.63;;
2041;SDS011;1026;51.460;7.252;2023-02-28T15:42:38;4.40;;;3.20;;
2041;SDS011;1026;51.460;7.252;2023-02-28T15:45:04;4.10;;;3.50;;
2041;SDS011;1026;51.460;7.252;2023-02-28T15:47:30;4.17;;;3.80;;
2041;SDS011;1026;51.460;7.252;2023-02-28T15:49:57;2.90;;;2.70;;
2041;SDS011;1026;51.460;7.252;2023-02-28T15:52:29;4.20;;;3.23;;
2041;SDS011;1026;51.460;7.252;2023-02-28T15:55:09;3.23;;;2.93;;
2041;SDS011;1026;51.460;7.252;2023-02-28T15:57:46;3.60;;;3.30;;
2041;SDS011;1026;51.460;7.252;2023-02-28T16:00:18;3.10;;;2.80;;
2041;SDS011;1026;51.460;7.252;2023-02-28T16:02:46;3.00;;;2.60;;
2041;SDS011;1026;51.460;7.252;2023-02-28T16:05:18;3.80;;;3.40;;
2041;SDS011;1026;51.460;7.252;2023-02-28T16:07:53;5.17;;;3.47;;
2041;SDS011;1026;51.460;7.252;2023-02-28T16:10:21;4.53;;;3.90;;
2041;SDS011;1026;51.460;7.252;2023-02-28T16:12:52;3.80;;;3.50;;
2041;SDS011;1026;51.460;7.252;2023-02-28T16:15:21;3.30;;;3.00;;
2041;SDS011;1026;51.460;7.252;2023-02-28T16:17:49;3.80;;;3.50;;
2041;SDS011;1026;51.460;7.252;2023-02-28T16:20:16;3.77;;;3.47;;
2041;SDS011;1026;51.460;7.252;2023-02-28T16:22:47;2.77;;;2.57;;
2041;SDS011;1026;51.460;7.252;2023-02-28T16:25:13;10.60;;;3.50;;
2041;SDS011;1026;51.460;7.252;2023-02-28T16:27:42;3.60;;;3.30;;
2041;SDS011;1026;51.460;7.252;2023-02-28T16:30:15;3.47;;;3.17;;
2041;SDS011;1026;51.460;7.252;2023-02-28T16:32:48;3.20;;;2.70;;
2041;SDS011;1026;51.460;7.252;2023-02-28T16:35:15;5.57;;;3.13;;
2041;SDS011;1026;51.460;7.252;2023-02-28T16:37:42;4.23;;;3.50;;
2041;SDS011;1026;51.460;7.252;2023-02-28T16:40:13;3.97;;;3.23;;
2041;SDS011;1026;51.460;7.252;2023-02-28T16:42:41;4.27;;;3.80;;
2041;SDS011;1026;51.460;7.252;2023-02-28T16:45:13;4.20;;;3.80;;
2041;SDS011;1026;51.460;7.252;2023-02-28T16:47:44;4.30;;;3.63;;
2041;SDS011;1026;51.460;7.252;2023-02-28T16:50:14;3.90;;;3.20;;
2041;SDS011;1026;51.460;7.252;2023-02-28T16:52:43;3.80;;;3.40;;
2041;SDS011;1026;51.460;7.252;2023-02-28T16:55:09;5.00;;;3.33;;
2041;SDS011;1026;51.460;7.252;2023-02-28T16:57:35;3.70;;;2.80;;
2041;SDS011;1026;51.460;7.252;2023-02-28T17:00:02;3.57;;;2.90;;
2041;SDS011;1026;51.460;7.252;2023-02-28T17:02:28;2.83;;;2.60;;
2041;SDS011;1026;51.460;7.252;2023-02-28T17:04:54;3.07;;;2.40;;
2041;SDS011;1026;51.460;7.252;2023-02-28T17:07:20;3.40;;;3.00;;
2041;SDS011;1026;51.460;7.252;2023-02-28T17:09:45;7.30;;;3.20;;
2041;SDS011;1026;51.460;7.252;2023-02-28T17:12:11;3.10;;;2.90;;
2041;SDS011;1026;51.460;7.252;2023-02-28T17:14:37;4.57;;;3.07;;
2041;SDS011;1026;51.460;7.252;2023-02-28T17:17:05;2.77;;;2.57;;
2041;SDS011;1026;51.460;7.252;2023-02-28T17:19:31;3.17;;;2.97;;
2041;SDS011;1026;51.460;7.252;2023-02-28T17:21:56;5.17;;;3.40;;
2041;SDS011;1026;51.460;7.252;2023-02-28T17:24:22;3.47;;;3.27;;
2041;SDS011;1026;51.460;7.252;2023-02-28T17:26:48;3.53;;;3.23;;
2041;SDS011;1026;51.460;7.252;2023-02-28T17:29:16;3.87;;;3.43;;
2041;SDS011;1026;51.460;7.252;2023-02-28T17:31:44;4.20;;;2.43;;
2041;SDS011;1026;51.460;7.252;2023-02-28T17:34:10;4.00;;;3.23;;
2041;SDS011;1026;51.460;7.252;2023-02-28T17:36:42;3.30;;;3.00;;
2041;SDS011;1026;51.460;7.252;2023-02-28T17:39:09;3.40;;;2.70;;
2041;SDS011;1026;51.460;7.252;2023-02-28T17:41:39;4.50;;;3.70;;
2041;SDS011;1026;51.460;7.252;2023-02-28T17:44:06;4.00;;;3.40;;
2041;SDS011;1026;51.460;7.252;2023-02-28T17:46:32;9.67;;;3.57;;
2041;SDS011;1026;51.460;7.252;2023-02-28T17:48:58;5.43;;;3.70;;
2041;SDS011;1026;51.460;7.252;2023-02-28T17:51:24;3.90;;;3.30;;
2041;SDS011;1026;51.460;7.252;2023-02-28T17:53:52;4.53;;;3.60;;
2041;SDS011;1026;51.460;7.252;2023-02-28T17:56:20;4.03;;;2.90;;